Terminal Aerodrome Forecast
Issued by NWS Brownsville, TX

Home | Current Version | Previous Version | Text Only | Print | Product List | Glossary On
Versions: 1 2 3 4 5 6 7 8 9 10 11 12 13 14 15 16 17 18 19 20
000
FTUS44 KBRO 201700
TAFHRL
TAF
KHRL 201735Z 2018/2118 13015G23KT P6SM OVC035
     FM210100 13012KT P6SM SCT025
     FM210400 14009KT P6SM BKN025
     FM210600 14009KT P6SM OVC015
      TEMPO 2109/2113 BKN007
     FM211500 14014KT P6SM OVC020=

USA.gov is the U.S. government's official web portal to all federal, state and local government web resources and services.